Time;durP1;ratioP1;P1;durP2;ratioP2;P2;SDS_P1;SDS_P2;PMS_P1;PMS_P2;Temp;Humidity;BMP_temperature;BMP_pressure;BME280_temperature;BME280_humidity;BME280_pressure;Samples;Min_cycle;Max_cycle;Signal;HPM_P1;HPM_P2
2023/06/28 00:00:39;;;;;;;10.10;2.20;;;;;;;11.52;100.00;100860.16;5052934;28;20402;-55
2023/06/28 00:03:10;;;;;;;10.43;2.38;;;;;;;11.50;100.00;100862.16;5053223;28;20080;-57
2023/06/28 00:05:38;;;;;;;13.18;2.50;;;;;;;11.50;100.00;100855.94;5052101;28;20048;-55
2023/06/28 00:08:05;;;;;;;12.20;2.50;;;;;;;11.45;100.00;100859.97;5052930;28;20516;-55
2023/06/28 00:10:31;;;;;;;9.45;2.63;;;;;;;11.43;100.00;100861.13;5053182;28;20051;-55
2023/06/28 00:12:58;;;;;;;13.68;2.58;;;;;;;11.43;100.00;100861.97;5053117;28;20084;-56
2023/06/28 00:15:24;;;;;;;8.20;2.40;;;;;;;11.42;100.00;100862.13;5052945;28;20049;-56
2023/06/28 00:17:52;;;;;;;10.68;2.10;;;;;;;11.41;100.00;100873.84;5052688;28;20099;-56
2023/06/28 00:20:18;;;;;;;7.55;2.17;;;;;;;11.35;100.00;100870.00;5052924;28;20037;-56
2023/06/28 00:22:45;;;;;;;13.20;2.10;;;;;;;11.35;100.00;100871.84;5052881;28;20103;-56
2023/06/28 00:25:11;;;;;;;13.23;1.90;;;;;;;11.32;100.00;100870.31;5052419;28;20079;-55
2023/06/28 00:27:38;;;;;;;15.20;3.25;;;;;;;11.34;100.00;100878.19;5052929;28;20040;-56
2023/06/28 00:30:05;;;;;;;9.32;2.80;;;;;;;11.29;100.00;100869.78;5052580;28;20049;-55
2023/06/28 00:32:32;;;;;;;9.80;2.38;;;;;;;11.29;100.00;100878.69;5052377;28;20048;-56
2023/06/28 00:34:58;;;;;;;8.43;1.90;;;;;;;11.26;100.00;100881.69;5052193;28;20067;-56
2023/06/28 00:37:25;;;;;;;10.23;2.35;;;;;;;11.22;100.00;100874.97;5052690;28;20409;-55
2023/06/28 00:39:52;;;;;;;28.25;3.45;;;;;;;11.22;100.00;100875.81;5052587;28;20107;-55
2023/06/28 00:42:18;;;;;;;9.15;2.55;;;;;;;11.26;100.00;100879.00;5052167;28;20264;-56
2023/06/28 00:44:45;;;;;;;6.03;2.40;;;;;;;11.28;100.00;100874.34;5052476;28;20049;-57
2023/06/28 00:47:12;;;;;;;10.38;2.50;;;;;;;11.25;100.00;100880.03;5052262;28;20057;-55
2023/06/28 00:49:39;;;;;;;12.20;2.53;;;;;;;11.21;100.00;100878.66;5052693;28;20048;-55
2023/06/28 00:52:07;;;;;;;14.95;2.72;;;;;;;11.16;100.00;100870.22;5052245;28;20041;-56
2023/06/28 00:54:33;;;;;;;8.95;2.28;;;;;;;11.19;100.00;100875.28;5052315;28;20045;-56
2023/06/28 00:57:01;;;;;;;10.52;2.70;;;;;;;11.18;100.00;100884.34;5051898;28;20453;-57
2023/06/28 00:59:29;;;;;;;10.05;2.53;;;;;;;11.18;100.00;100873.63;5052137;28;20318;-58
2023/06/28 01:01:56;;;;;;;8.18;2.15;;;;;;;11.18;100.00;100885.19;5052135;28;20057;-57
2023/06/28 01:04:22;;;;;;;15.43;2.45;;;;;;;11.16;100.00;100897.09;5052158;28;20044;-56
2023/06/28 01:07:24;;;;;;;11.27;2.42;;;;;;;11.12;100.00;100879.63;5053032;28;20053;-55
2023/06/28 01:09:51;;;;;;;7.60;2.20;;;;;;;11.08;100.00;100879.09;5051290;28;20048;-58
2023/06/28 01:12:18;;;;;;;12.43;2.83;;;;;;;11.10;100.00;100881.59;5051472;28;20099;-57
2023/06/28 01:14:45;;;;;;;12.25;3.45;;;;;;;11.07;100.00;100890.00;5051521;28;20067;-57
2023/06/28 01:17:12;;;;;;;13.13;3.65;;;;;;;11.06;100.00;100888.31;5050896;28;20544;-57
2023/06/28 01:19:39;;;;;;;8.52;2.47;;;;;;;11.04;100.00;100898.38;5051257;28;20041;-56
2023/06/28 01:22:09;;;;;;;8.60;2.70;;;;;;;10.96;100.00;100886.59;5051371;28;20041;-56
2023/06/28 01:24:36;;;;;;;8.60;2.75;;;;;;;10.95;100.00;100889.41;5051078;28;20047;-57
2023/06/28 01:27:03;;;;;;;11.57;2.33;;;;;;;10.96;100.00;100875.84;5050625;28;20068;-55
2023/06/28 01:29:30;;;;;;;11.45;2.88;;;;;;;10.93;100.00;100891.44;5050459;28;20048;-56
2023/06/28 01:31:57;;;;;;;14.18;3.15;;;;;;;10.94;100.00;100887.75;5050208;28;20420;-56
2023/06/28 01:34:28;;;;;;;10.30;2.53;;;;;;;10.90;100.00;100892.59;5051030;28;20045;-58
2023/06/28 01:36:56;;;;;;;9.98;2.80;;;;;;;10.93;100.00;100894.97;5051622;28;20406;-55
2023/06/28 01:39:24;;;;;;;11.35;2.78;;;;;;;10.97;100.00;100898.16;5051314;28;20102;-55
2023/06/28 01:41:52;;;;;;;15.13;3.20;;;;;;;10.99;100.00;100896.16;5050431;28;20045;-55
2023/06/28 01:44:19;;;;;;;10.80;2.58;;;;;;;10.93;100.00;100891.44;5051212;28;20560;-55
2023/06/28 01:46:46;;;;;;;10.55;2.50;;;;;;;10.89;100.00;100893.56;5050357;28;20098;-57
2023/06/28 01:49:13;;;;;;;12.07;2.97;;;;;;;10.88;100.00;100899.09;5050249;28;20049;-57
2023/06/28 01:51:40;;;;;;;11.93;2.63;;;;;;;10.82;100.00;100897.88;5050089;28;20057;-55
2023/06/28 01:54:06;;;;;;;13.95;2.70;;;;;;;10.82;100.00;100897.88;5050542;28;20045;-57
2023/06/28 01:56:33;;;;;;;10.00;2.60;;;;;;;10.79;100.00;100900.03;5050401;28;20429;-57
2023/06/28 01:58:59;;;;;;;11.90;3.08;;;;;;;10.82;100.00;100897.03;5050158;28;20039;-57
2023/06/28 02:01:26;;;;;;;17.45;3.30;;;;;;;10.76;100.00;100895.84;5050263;28;20084;-57
2023/06/28 02:03:53;;;;;;;11.45;2.70;;;;;;;10.79;100.00;100887.50;5051437;28;20045;-57
2023/06/28 02:06:19;;;;;;;6.70;2.33;;;;;;;10.73;100.00;100890.78;5049980;28;20049;-55
2023/06/28 02:08:46;;;;;;;8.95;2.60;;;;;;;10.74;100.00;100881.75;5049689;28;20098;-55
2023/06/28 02:11:12;;;;;;;20.77;3.60;;;;;;;10.74;100.00;100882.56;5049792;28;20045;-59
2023/06/28 02:13:39;;;;;;;16.17;3.20;;;;;;;10.70;100.00;100877.69;5050325;28;20072;-56
2023/06/28 02:16:05;;;;;;;11.18;2.90;;;;;;;10.66;100.00;100871.78;5050463;28;20041;-57
2023/06/28 02:18:34;;;;;;;16.55;3.22;;;;;;;10.66;100.00;100876.31;5050145;28;20481;-56
2023/06/28 02:21:01;;;;;;;8.13;2.58;;;;;;;10.61;100.00;100878.63;5050461;28;20045;-56
2023/06/28 02:23:28;;;;;;;12.40;2.50;;;;;;;10.57;100.00;100874.56;5050168;28;20076;-57
2023/06/28 02:25:54;;;;;;;8.55;2.78;;;;;;;10.54;100.00;100875.72;5050175;28;20132;-56
2023/06/28 02:28:24;;;;;;;9.02;2.67;;;;;;;10.60;100.00;100876.94;5049854;28;20182;-57
2023/06/28 02:30:50;;;;;;;13.40;3.28;;;;;;;10.53;100.00;100873.19;5051004;28;20068;-56
2023/06/28 02:33:17;;;;;;;14.95;2.78;;;;;;;10.58;100.00;100878.94;5049449;28;20053;-55
2023/06/28 02:35:43;;;;;;;14.30;3.05;;;;;;;10.57;100.00;100872.72;5049999;28;21014;-56
2023/06/28 02:38:10;;;;;;;14.38;3.15;;;;;;;10.65;100.00;100879.97;5050098;28;20057;-58
2023/06/28 02:40:36;;;;;;;12.20;2.53;;;;;;;10.63;100.00;100869.41;5049736;28;20390;-57
2023/06/28 02:43:03;;;;;;;11.75;2.88;;;;;;;10.70;100.00;100861.59;5049386;28;20092;-55
2023/06/28 02:45:29;;;;;;;16.35;2.85;;;;;;;10.65;100.00;100866.56;5049218;28;20408;-55
2023/06/28 02:47:56;;;;;;;12.98;3.08;;;;;;;10.68;100.00;100874.31;5049502;28;20045;-57
2023/06/28 02:50:24;;;;;;;18.60;3.22;;;;;;;10.72;100.00;100873.84;5051087;28;20511;-55
2023/06/28 02:52:51;;;;;;;21.77;7.47;;;;;;;10.73;100.00;100875.53;5049354;28;20390;-56
2023/06/28 02:55:17;;;;;;;12.10;4.40;;;;;;;10.78;100.00;100876.91;5049517;28;20045;-57
2023/06/28 02:57:44;;;;;;;13.60;2.88;;;;;;;10.78;100.00;100875.06;5049361;28;20052;-56
2023/06/28 03:00:11;;;;;;;12.13;2.63;;;;;;;10.75;100.00;100872.69;5049905;28;20047;-56
2023/06/28 03:02:37;;;;;;;10.77;2.63;;;;;;;10.80;100.00;100870.38;5049809;28;20048;-57
2023/06/28 03:05:04;;;;;;;17.98;3.03;;;;;;;10.91;100.00;100875.47;5050125;28;20049;-56
2023/06/28 03:07:30;;;;;;;8.70;3.38;;;;;;;10.77;100.00;100878.75;5048408;28;20045;-57
2023/06/28 03:09:57;;;;;;;9.18;2.50;;;;;;;10.90;100.00;100871.13;5048235;28;20118;-56
2023/06/28 03:12:24;;;;;;;8.98;2.45;;;;;;;11.06;100.00;100877.56;5050741;28;20394;-57
2023/06/28 03:14:50;;;;;;;11.60;2.63;;;;;;;11.02;100.00;100874.34;5053387;28;20049;-56
2023/06/28 03:17:19;;;;;;;8.30;2.38;;;;;;;11.04;100.00;100877.72;5052446;28;20045;-57
2023/06/28 03:19:46;;;;;;;12.95;2.67;;;;;;;11.02;100.00;100884.25;5053823;28;20107;-55
2023/06/28 03:22:14;;;;;;;13.50;3.13;;;;;;;10.99;100.00;100888.94;5053266;28;20489;-54
2023/06/28 03:24:40;;;;;;;14.52;3.30;;;;;;;11.07;100.00;100887.31;5053145;28;20103;-57
2023/06/28 03:27:07;;;;;;;10.25;2.60;;;;;;;10.96;100.00;100889.28;5053602;28;20104;-56
2023/06/28 03:29:34;;;;;;;12.77;2.72;;;;;;;11.09;100.00;100887.97;5053510;28;20049;-55
2023/06/28 03:32:01;;;;;;;9.35;2.50;;;;;;;11.03;100.00;100891.31;5053036;28;20118;-55
2023/06/28 03:34:27;;;;;;;14.55;3.08;;;;;;;11.05;100.00;100889.31;5053142;28;20099;-54
2023/06/28 03:36:54;;;;;;;17.52;3.67;;;;;;;11.02;100.00;100887.78;5053298;28;20041;-57
2023/06/28 03:39:30;;;;;;;15.05;2.80;;;;;;;11.01;100.00;100894.16;5053513;28;20082;-57
2023/06/28 03:41:57;;;;;;;18.00;3.05;;;;;;;11.11;100.00;100889.53;5053089;28;20044;-56
2023/06/28 03:44:23;;;;;;;11.50;2.65;;;;;;;11.19;100.00;100888.72;5053585;28;20068;-55
2023/06/28 03:46:50;;;;;;;16.35;2.90;;;;;;;11.23;100.00;100892.75;5053323;28;20060;-56
2023/06/28 03:49:16;;;;;;;14.93;3.72;;;;;;;11.25;100.00;100885.41;5052816;28;20044;-56
2023/06/28 03:51:43;;;;;;;10.65;2.38;;;;;;;11.23;100.00;100890.91;5052646;28;20049;-58
2023/06/28 03:54:09;;;;;;;16.95;3.17;;;;;;;11.31;100.00;100892.81;5084391;28;20049;-55
2023/06/28 03:56:36;;;;;;;10.95;3.13;;;;;;;11.30;100.00;100890.28;5051797;28;20111;-55
2023/06/28 03:59:03;;;;;;;12.23;3.28;;;;;;;11.32;100.00;100896.34;5052831;28;20092;-55
2023/06/28 04:01:29;;;;;;;13.98;2.78;;;;;;;11.41;100.00;100892.66;5052720;28;20091;-55
2023/06/28 04:03:56;;;;;;;10.27;2.70;;;;;;;11.40;100.00;100891.81;5052589;28;20045;-56
2023/06/28 04:06:23;;;;;;;18.13;3.00;;;;;;;11.39;100.00;100892.84;5053126;28;20048;-57
2023/06/28 04:08:49;;;;;;;18.40;2.58;;;;;;;11.43;100.00;100888.81;5052984;28;20105;-55
2023/06/28 04:11:16;;;;;;;17.50;2.92;;;;;;;11.41;100.00;100893.53;5052040;28;20150;-55
2023/06/28 04:13:42;;;;;;;9.95;2.72;;;;;;;11.39;100.00;100889.31;5052302;28;20048;-56
2023/06/28 04:16:09;;;;;;;7.20;2.45;;;;;;;11.52;100.00;100888.84;5052701;28;20045;-56
2023/06/28 04:18:35;;;;;;;17.02;2.95;;;;;;;11.53;100.00;100899.44;5052751;28;20045;-57
2023/06/28 04:21:02;;;;;;;12.55;2.78;;;;;;;11.51;100.00;100900.59;5052573;28;20079;-56
2023/06/28 04:23:28;;;;;;;13.35;2.90;;;;;;;11.53;100.00;100896.75;5052250;28;20037;-56
2023/06/28 04:25:57;;;;;;;10.60;2.45;;;;;;;11.54;100.00;100897.59;5051727;28;20053;-56
2023/06/28 04:28:25;;;;;;;14.68;2.70;;;;;;;11.56;100.00;100904.50;5051425;28;20123;-57
2023/06/28 04:30:51;;;;;;;7.97;2.40;;;;;;;11.53;100.00;100904.81;5052868;28;20060;-56
2023/06/28 04:33:22;;;;;;;8.48;2.75;;;;;;;11.48;100.00;100907.13;5052127;28;20075;-56
2023/06/28 04:35:49;;;;;;;11.30;2.80;;;;;;;11.57;100.00;100914.22;5051766;28;20052;-55
2023/06/28 04:38:19;;;;;;;11.80;2.78;;;;;;;11.61;100.00;100923.66;5051974;28;20092;-56
2023/06/28 04:40:46;;;;;;;18.77;3.67;;;;;;;11.60;100.00;100923.81;5050904;28;20053;-54
2023/06/28 04:43:14;;;;;;;11.63;2.80;;;;;;;11.62;100.00;100935.22;5051184;28;20447;-57
2023/06/28 04:45:41;;;;;;;10.35;2.67;;;;;;;11.63;100.00;100935.09;5052271;28;20128;-55
2023/06/28 04:48:08;;;;;;;14.52;2.88;;;;;;;11.62;100.00;100937.91;5052250;28;20061;-56
2023/06/28 04:50:36;;;;;;;17.85;3.15;;;;;;;11.74;100.00;100930.47;5051142;28;20132;-56
2023/06/28 04:53:04;;;;;;;12.65;2.83;;;;;;;11.69;100.00;100941.72;5051626;28;20045;-56
2023/06/28 04:55:34;;;;;;;10.60;2.42;;;;;;;11.86;100.00;100943.44;5050539;28;20037;-57
2023/06/28 04:58:02;;;;;;;12.05;2.63;;;;;;;11.91;100.00;100946.47;5051309;28;20385;-56
2023/06/28 05:00:30;;;;;;;13.18;3.00;;;;;;;11.97;100.00;100941.44;5051759;28;20438;-55
2023/06/28 05:02:57;;;;;;;10.82;2.67;;;;;;;12.11;100.00;100932.75;5051453;28;20052;-56
2023/06/28 05:05:24;;;;;;;17.05;2.78;;;;;;;12.18;100.00;100933.78;5051112;28;20413;-59
2023/06/28 05:07:52;;;;;;;9.02;2.83;;;;;;;12.33;100.00;100933.94;5051342;28;20559;-56
2023/06/28 05:10:21;;;;;;;10.50;2.42;;;;;;;12.37;100.00;100925.38;5050658;28;20048;-56
2023/06/28 05:12:51;;;;;;;17.80;2.90;;;;;;;12.35;100.00;100929.25;5051563;28;20044;-56
2023/06/28 05:15:19;;;;;;;11.65;3.03;;;;;;;12.16;100.00;100920.47;5051731;28;20133;-56
2023/06/28 05:17:46;;;;;;;11.15;2.70;;;;;;;12.29;100.00;100919.16;5051144;28;20041;-56
2023/06/28 05:20:13;;;;;;;15.18;3.28;;;;;;;12.21;100.00;100938.81;5051242;28;20049;-57
2023/06/28 05:22:46;;;;;;;8.18;2.25;;;;;;;12.17;100.00;100929.38;5051470;28;20049;-57
2023/06/28 05:25:13;;;;;;;11.10;2.75;;;;;;;12.27;100.00;100934.59;5051521;28;20076;-57
2023/06/28 05:27:39;;;;;;;12.85;2.33;;;;;;;12.27;100.00;100940.81;5050348;28;20114;-57
2023/06/28 05:30:07;;;;;;;11.95;2.92;;;;;;;12.25;100.00;100925.88;5051045;28;20041;-56
2023/06/28 05:32:34;;;;;;;17.42;3.45;;;;;;;12.35;100.00;100935.47;5050506;28;20044;-57
2023/06/28 05:35:02;;;;;;;10.25;2.78;;;;;;;12.50;100.00;100940.19;5051340;28;20049;-58
2023/06/28 05:37:29;;;;;;;19.73;3.03;;;;;;;12.39;100.00;100942.19;5049643;28;20064;-55
2023/06/28 05:39:55;;;;;;;20.35;3.17;;;;;;;12.43;100.00;100939.19;5050983;28;20463;-56
2023/06/28 05:42:22;;;;;;;27.13;3.30;;;;;;;12.52;100.00;100943.53;5051069;28;20409;-57
2023/06/28 05:44:48;;;;;;;18.52;3.20;;;;;;;12.47;100.00;100937.81;5050834;28;20095;-57
2023/06/28 05:47:15;;;;;;;16.65;3.50;;;;;;;12.35;100.00;100938.16;5050378;28;20408;-55
2023/06/28 05:49:42;;;;;;;21.48;3.65;;;;;;;12.51;100.00;100936.47;5050703;28;20044;-57
2023/06/28 05:52:09;;;;;;;13.45;2.97;;;;;;;12.45;100.00;100931.75;5050422;28;20056;-60
2023/06/28 05:54:36;;;;;;;18.95;3.58;;;;;;;12.56;100.00;100936.84;5050610;28;20045;-60
2023/06/28 05:57:03;;;;;;;12.75;3.28;;;;;;;12.75;100.00;100936.50;5049671;28;20069;-59
2023/06/28 05:59:31;;;;;;;10.23;2.60;;;;;;;12.69;100.00;100934.44;5049576;28;20520;-59
2023/06/28 06:01:57;;;;;;;11.55;2.85;;;;;;;12.92;100.00;100941.88;5050259;28;20055;-60
2023/06/28 06:04:24;;;;;;;11.45;2.78;;;;;;;12.79;100.00;100932.47;5050779;28;20045;-59
2023/06/28 06:06:51;;;;;;;13.57;4.20;;;;;;;12.86;100.00;100940.69;5050313;28;20103;-59
2023/06/28 06:09:17;;;;;;;17.85;4.45;;;;;;;12.91;100.00;100932.13;5039198;28;20128;-59
2023/06/28 06:11:45;;;;;;;12.20;2.38;;;;;;;13.01;100.00;100932.78;5030657;28;20454;-59
2023/06/28 06:14:11;;;;;;;13.40;2.95;;;;;;;12.94;100.00;100934.47;5029813;28;20520;-60
2023/06/28 06:16:38;;;;;;;11.63;2.83;;;;;;;13.07;100.00;100937.47;5029961;28;20076;-60
2023/06/28 06:19:05;;;;;;;10.18;2.35;;;;;;;13.16;100.00;100933.75;5030651;28;20052;-59
2023/06/28 06:21:32;;;;;;;9.68;2.45;;;;;;;13.20;100.00;100937.78;5030576;28;20096;-61
2023/06/28 06:23:59;;;;;;;15.35;2.63;;;;;;;13.29;100.00;100941.31;5030130;28;20084;-60
2023/06/28 06:26:27;;;;;;;16.08;2.53;;;;;;;13.41;100.00;100939.06;5029321;28;20050;-60
2023/06/28 06:28:54;;;;;;;10.70;2.95;;;;;;;13.45;100.00;100940.41;5030590;28;20045;-60
2023/06/28 06:31:21;;;;;;;12.57;2.38;;;;;;;13.48;100.00;100945.44;5045288;28;20045;-60
2023/06/28 06:33:47;;;;;;;11.40;2.95;;;;;;;13.52;100.00;100947.63;5050070;28;20049;-60
2023/06/28 06:36:14;;;;;;;11.23;2.72;;;;;;;13.63;100.00;100937.47;5049972;28;20053;-60
2023/06/28 06:38:41;;;;;;;11.65;2.58;;;;;;;13.81;100.00;100943.50;5049471;28;20060;-60
2023/06/28 06:41:08;;;;;;;9.63;2.60;;;;;;;13.77;100.00;100939.47;5049507;28;20537;-60
2023/06/28 06:43:34;;;;;;;11.73;2.70;;;;;;;13.71;100.00;100951.75;5050415;28;20102;-60
2023/06/28 06:46:01;;;;;;;15.30;3.00;;;;;;;13.84;100.00;100943.16;5050348;28;20049;-60
2023/06/28 06:48:27;;;;;;;11.65;2.90;;;;;;;13.99;100.00;100941.38;5051041;28;20493;-60
2023/06/28 06:50:54;;;;;;;12.45;2.90;;;;;;;14.04;100.00;100946.22;5053880;28;20041;-59
2023/06/28 06:53:20;;;;;;;15.35;3.28;;;;;;;14.32;100.00;100940.31;5053748;28;20094;-59
2023/06/28 06:55:47;;;;;;;13.05;2.50;;;;;;;14.55;100.00;100941.16;5054421;28;20037;-59
2023/06/28 06:58:14;;;;;;;6.72;1.95;;;;;;;14.29;100.00;100950.47;5053273;28;20463;-59
2023/06/28 07:00:40;;;;;;;10.48;2.33;;;;;;;14.40;100.00;100940.28;5053124;28;20045;-59
2023/06/28 07:03:07;;;;;;;11.90;2.28;;;;;;;14.56;100.00;100939.28;5054186;28;20041;-57
2023/06/28 07:05:34;;;;;;;10.82;2.83;;;;;;;14.62;100.00;100966.41;5053923;28;20045;-60
2023/06/28 07:08:00;;;;;;;10.82;1.98;;;;;;;14.65;100.00;100959.81;5052164;28;20068;-60
2023/06/28 07:10:27;;;;;;;8.73;2.33;;;;;;;14.79;100.00;100960.91;5053298;28;20049;-60
2023/06/28 07:12:53;;;;;;;11.68;1.77;;;;;;;14.90;100.00;100958.59;5052638;28;20071;-60
2023/06/28 07:15:20;;;;;;;7.18;2.42;;;;;;;15.08;100.00;100963.66;5054083;28;20092;-59
2023/06/28 07:17:47;;;;;;;11.20;2.45;;;;;;;15.10;100.00;100964.34;5053576;28;20122;-59
2023/06/28 07:20:13;;;;;;;8.00;1.50;;;;;;;15.33;100.00;100969.69;5052857;28;20045;-60
2023/06/28 07:22:40;;;;;;;9.88;2.38;;;;;;;15.23;100.00;100969.94;5053840;28;20061;-59
2023/06/28 07:25:07;;;;;;;9.85;2.17;;;;;;;15.85;100.00;100966.03;5053493;28;20475;-57
2023/06/28 07:27:33;;;;;;;7.78;2.33;;;;;;;15.93;100.00;100971.34;5053149;28;20051;-60
2023/06/28 07:30:00;;;;;;;8.90;2.13;;;;;;;16.36;100.00;100970.56;5052462;28;20044;-60
2023/06/28 07:32:27;;;;;;;6.70;1.70;;;;;;;16.93;100.00;100977.81;5052719;28;20073;-59
2023/06/28 07:34:57;;;;;;;11.75;2.30;;;;;;;17.12;100.00;100974.41;5053196;28;20044;-60
2023/06/28 07:37:24;;;;;;;8.43;2.05;;;;;;;17.51;97.89;100974.88;5051948;28;20124;-60
2023/06/28 07:39:51;;;;;;;9.93;2.00;;;;;;;17.64;97.71;100972.25;5052016;28;20118;-60
2023/06/28 07:42:21;;;;;;;7.03;1.73;;;;;;;18.01;93.47;100979.09;5051825;28;20045;-60
2023/06/28 07:44:48;;;;;;;8.43;1.90;;;;;;;17.69;91.88;100975.22;5051499;28;20049;-60
2023/06/28 07:47:15;;;;;;;6.60;1.80;;;;;;;17.75;88.44;100971.69;5052192;28;20532;-60
2023/06/28 07:49:41;;;;;;;5.35;1.48;;;;;;;17.88;82.32;100961.94;5052888;28;20053;-60
2023/06/28 07:52:09;;;;;;;8.75;1.83;;;;;;;18.05;78.14;100966.78;5052839;28;20390;-60
2023/06/28 07:54:35;;;;;;;7.43;1.73;;;;;;;18.32;74.02;100966.91;5052588;28;20040;-60
2023/06/28 07:57:02;;;;;;;4.03;1.25;;;;;;;18.47;73.31;100961.28;5051453;28;20052;-60
2023/06/28 07:59:29;;;;;;;7.18;1.67;;;;;;;18.28;76.37;100965.66;5050365;28;20052;-60
2023/06/28 08:01:55;;;;;;;10.73;2.00;;;;;;;18.27;79.74;100961.25;5051459;28;20045;-60
2023/06/28 08:04:22;;;;;;;8.93;2.60;;;;;;;18.30;80.42;100963.53;5044236;28;20045;-60
2023/06/28 08:06:49;;;;;;;9.10;2.00;;;;;;;18.25;80.07;100972.31;5032861;28;20073;-59
2023/06/28 08:09:16;;;;;;;10.07;1.60;;;;;;;18.34;77.57;100974.84;5032241;28;20049;-59
2023/06/28 08:11:43;;;;;;;8.73;2.10;;;;;;;18.29;75.88;100960.00;5032202;28;20460;-59
2023/06/28 08:14:09;;;;;;;9.60;2.08;;;;;;;18.29;74.45;100976.28;5031780;28;20053;-60
2023/06/28 08:16:36;;;;;;;7.90;1.63;;;;;;;18.58;71.63;100973.41;5032102;28;20389;-60
2023/06/28 08:19:02;;;;;;;12.07;2.00;;;;;;;18.74;72.57;100973.03;5032051;28;20053;-59
2023/06/28 08:21:29;;;;;;;6.90;1.83;;;;;;;18.67;70.06;100972.19;5031996;28;20493;-59
2023/06/28 08:23:56;;;;;;;8.45;1.98;;;;;;;18.66;69.29;100973.25;5031715;28;20136;-60
2023/06/28 08:26:22;;;;;;;4.78;1.50;;;;;;;18.29;69.80;100975.47;5032437;28;20100;-59
2023/06/28 08:28:49;;;;;;;8.32;1.60;;;;;;;18.21;71.25;100972.94;5032707;28;20046;-59
2023/06/28 08:31:26;;;;;;;7.85;1.67;;;;;;;18.41;69.93;100971.13;5032072;28;20045;-59
2023/06/28 08:33:53;;;;;;;6.75;1.67;;;;;;;18.23;72.75;100979.81;5032673;28;20091;-57
2023/06/28 08:36:19;;;;;;;10.40;2.20;;;;;;;18.46;70.41;100970.50;5031992;28;20037;-58
2023/06/28 08:38:46;;;;;;;4.63;1.65;;;;;;;18.54;69.65;100962.97;5032264;28;20065;-61
2023/06/28 08:41:13;;;;;;;8.82;1.60;;;;;;;18.83;67.44;100979.94;5031469;28;20059;-61
2023/06/28 08:43:48;;;;;;;5.97;1.60;;;;;;;19.02;65.87;100967.41;5031757;28;20056;-60
2023/06/28 08:46:15;;;;;;;6.95;1.77;;;;;;;19.36;65.13;100966.31;5032246;28;21492;-60
2023/06/28 08:48:42;;;;;;;9.63;1.63;;;;;;;18.88;61.29;100980.13;5030987;28;20056;-60
2023/06/28 08:51:09;;;;;;;4.60;1.52;;;;;;;19.22;60.48;100968.22;5031245;28;20073;-61
2023/06/28 08:53:37;;;;;;;10.23;1.67;;;;;;;19.30;60.26;100974.50;5031574;28;20548;-60
2023/06/28 08:56:04;;;;;;;3.42;1.30;;;;;;;19.37;58.70;100967.97;5031145;28;20046;-61
2023/06/28 08:58:34;;;;;;;6.13;1.48;;;;;;;19.52;59.64;100972.34;5031276;28;20136;-60
2023/06/28 09:01:01;;;;;;;5.93;1.48;;;;;;;19.26;60.73;100983.06;5031144;28;20410;-61
2023/06/28 09:03:30;;;;;;;9.60;2.10;;;;;;;19.36;60.35;100979.09;5030937;28;20115;-60
2023/06/28 09:05:58;;;;;;;5.30;1.55;;;;;;;19.56;60.58;100973.59;5031426;28;20497;-60
2023/06/28 09:08:26;;;;;;;7.13;1.58;;;;;;;19.80;61.35;100969.38;5031671;28;20468;-60
2023/06/28 09:10:56;;;;;;;9.15;1.70;;;;;;;19.99;59.87;100967.59;5029885;28;20072;-60
2023/06/28 09:13:23;;;;;;;2.58;1.17;;;;;;;20.98;57.73;100964.25;5036204;28;20479;-59
2023/06/28 09:15:53;;;;;;;4.97;1.33;;;;;;;20.94;57.95;100965.75;5031494;28;20056;-58
2023/06/28 09:18:19;;;;;;;6.68;1.75;;;;;;;21.09;56.66;100968.94;5030844;28;20468;-60
2023/06/28 09:20:51;;;;;;;6.20;1.45;;;;;;;21.28;53.90;100975.28;5030775;28;20091;-60
2023/06/28 09:23:23;;;;;;;8.07;1.55;;;;;;;20.78;53.76;100982.66;5030034;28;20107;-60
2023/06/28 09:25:50;;;;;;;6.38;1.67;;;;;;;21.01;52.53;100976.56;5021526;28;20099;-59
2023/06/28 09:28:17;;;;;;;7.03;1.70;;;;;;;21.63;51.61;100982.91;5030600;28;20491;-59
2023/06/28 09:30:44;;;;;;;5.72;1.73;;;;;;;22.63;49.43;100971.53;5030740;28;20103;-59
2023/06/28 09:33:10;;;;;;;2.97;1.15;;;;;;;23.23;47.50;100965.09;5030282;28;20084;-61
2023/06/28 09:35:37;;;;;;;6.40;1.48;;;;;;;22.74;47.65;100980.81;5030187;28;20045;-59
2023/06/28 09:38:08;;;;;;;4.93;1.50;;;;;;;22.55;48.18;100978.16;5031104;28;20064;-59
2023/06/28 09:40:35;;;;;;;5.28;1.40;;;;;;;22.33;48.53;100986.03;5030523;28;20049;-60
2023/06/28 09:43:02;;;;;;;5.63;1.70;;;;;;;21.68;50.71;100988.53;5029867;28;20049;-59
2023/06/28 09:45:32;;;;;;;6.30;1.55;;;;;;;22.07;49.40;100987.22;5030524;28;20056;-61
2023/06/28 09:48:01;;;;;;;8.18;1.98;;;;;;;22.98;46.71;100987.16;5031130;28;20041;-60
2023/06/28 09:50:44;;;;;;;4.18;1.50;;;;;;;23.89;44.48;100979.41;5030256;28;20456;-59
2023/06/28 09:53:13;;;;;;;9.30;1.77;;;;;;;23.70;45.12;100978.69;5031246;28;20059;-60
2023/06/28 09:55:42;;;;;;;5.85;1.70;;;;;;;23.87;46.41;100981.56;5029731;28;20061;-59
2023/06/28 09:58:20;;;;;;;7.93;2.00;;;;;;;23.77;47.91;100973.13;5028993;28;20053;-60
2023/06/28 10:00:49;;;;;;;9.25;1.50;;;;;;;23.95;45.08;100970.19;5030090;28;20068;-59
2023/06/28 10:03:17;;;;;;;7.68;1.70;;;;;;;24.64;43.21;100973.69;5030115;28;20099;-59
2023/06/28 10:05:47;;;;;;;8.27;1.85;;;;;;;25.15;41.93;100971.00;5030880;28;20063;-59
2023/06/28 10:08:16;;;;;;;8.00;1.60;;;;;;;25.12;42.29;100974.25;5029726;28;20103;-59
2023/06/28 10:10:44;;;;;;;6.38;1.77;;;;;;;24.26;42.92;100966.13;5027921;28;20057;-60
2023/06/28 10:13:21;;;;;;;6.78;1.65;;;;;;;24.96;42.78;100975.03;5028779;28;20100;-60
2023/06/28 10:16:09;;;;;;;7.35;1.67;;;;;;;23.97;42.77;100968.88;5030274;28;20053;-58
2023/06/28 10:18:36;;;;;;;7.38;1.40;;;;;;;23.22;44.69;100971.63;5030162;28;20559;-60
2023/06/28 10:21:06;;;;;;;7.97;1.50;;;;;;;23.34;43.81;100977.94;5029134;28;20045;-59
2023/06/28 10:23:38;;;;;;;7.97;2.08;;;;;;;23.61;44.27;100978.25;5028503;28;20447;-59
2023/06/28 10:26:06;;;;;;;4.63;1.30;;;;;;;24.26;43.23;100981.75;5030215;28;20417;-60
2023/06/28 10:28:34;;;;;;;6.47;1.85;;;;;;;24.80;41.28;100976.72;5029112;28;20042;-59
2023/06/28 10:31:05;;;;;;;5.82;1.35;;;;;;;24.86;40.88;100975.72;5029204;28;20482;-61
2023/06/28 10:33:33;;;;;;;6.03;1.55;;;;;;;23.16;44.32;100976.16;5029923;28;20051;-60
2023/06/28 10:36:00;;;;;;;6.00;1.33;;;;;;;22.38;46.17;100966.19;5029994;28;20103;-59
2023/06/28 10:38:43;;;;;;;10.40;2.05;;;;;;;22.71;46.06;100968.47;5030248;28;20476;-59
2023/06/28 10:41:14;;;;;;;6.78;1.75;;;;;;;24.12;43.67;100971.09;5029936;28;20057;-59
2023/06/28 10:43:41;;;;;;;8.60;1.90;;;;;;;24.30;41.48;100969.22;5029662;28;20051;-60
2023/06/28 10:46:22;;;;;;;9.30;1.98;;;;;;;25.26;40.64;100969.22;5029565;28;20100;-59
2023/06/28 10:49:03;;;;;;;3.30;1.30;;;;;;;23.68;42.14;100970.75;5028575;28;20067;-60
2023/06/28 10:51:34;;;;;;;7.30;1.60;;;;;;;22.79;44.83;100965.38;5049660;28;20463;-59
2023/06/28 10:54:15;;;;;;;8.35;1.73;;;;;;;21.51;46.61;100976.53;5049477;28;20049;-59
2023/06/28 10:56:46;;;;;;;4.13;1.58;;;;;;;21.32;47.12;100978.41;5049862;28;20053;-60
2023/06/28 10:59:14;;;;;;;6.00;1.70;;;;;;;22.90;45.26;100974.66;5050093;28;20056;-59
2023/06/28 11:01:49;;;;;;;9.40;1.60;;;;;;;22.35;44.69;100963.09;5049192;28;20124;-59
2023/06/28 11:04:18;;;;;;;9.35;1.60;;;;;;;21.92;45.98;100983.25;5049032;28;20053;-59
2023/06/28 11:06:46;;;;;;;8.45;1.60;;;;;;;21.21;46.47;100981.88;5047919;28;20049;-59
2023/06/28 11:09:15;;;;;;;8.73;1.70;;;;;;;21.37;47.15;100978.56;5039786;28;20052;-59
2023/06/28 11:11:57;;;;;;;6.63;1.58;;;;;;;21.09;45.78;100979.03;5028776;28;20103;-59
2023/06/28 11:14:25;;;;;;;7.20;1.52;;;;;;;21.56;46.54;100977.53;5048861;28;20385;-59
2023/06/28 11:16:59;;;;;;;2.45;1.20;;;;;;;22.08;45.97;100974.41;5049771;28;20568;-59